createdAt,value
2022-11-24T08:46:57.014Z,99659.44
2022-11-24T08:51:59.147Z,99659.75
2022-11-24T08:57:01.142Z,99666.44
2022-11-24T09:02:03.193Z,99661.66
2022-11-24T09:07:05.574Z,99663.28
2022-11-24T09:12:14.358Z,99661.41
2022-11-24T09:17:16.745Z,99659.06
2022-11-24T09:22:19.238Z,99667.03
2022-11-24T09:27:21.295Z,99676.59
2022-11-24T09:32:23.434Z,99683.16
2022-11-24T09:37:29.630Z,99675.88
2022-11-24T09:42:43.348Z,99682.09
2022-11-24T09:48:02.225Z,99680.00
2022-11-24T09:53:22.470Z,99672.41
2022-11-24T09:58:31.312Z,99689.50
2022-11-24T10:03:45.450Z,99682.78
2022-11-24T10:08:47.434Z,99685.44
2022-11-24T10:14:16.713Z,99696.00
2022-11-24T10:19:53.918Z,99672.28
2022-11-24T10:25:39.460Z,99690.09
2022-11-24T10:30:42.709Z,99691.38
2022-11-24T10:35:52.090Z,99679.84
2022-11-24T10:40:59.407Z,99695.28
2022-11-24T10:46:25.563Z,99699.91
2022-11-24T10:51:30.666Z,99705.44
2022-11-24T10:56:43.805Z,99713.63
2022-11-24T11:01:45.930Z,99704.56
2022-11-24T11:06:47.975Z,99726.94
2022-11-24T11:11:53.626Z,99715.12
2022-11-24T11:17:00.167Z,99729.47
2022-11-24T11:22:14.526Z,99723.56
2022-11-24T11:27:25.061Z,99735.13
2022-11-24T11:37:51.498Z,99754.03
2022-11-24T11:43:04.762Z,99748.59
2022-11-24T11:48:24.609Z,99747.88
2022-11-24T11:53:34.835Z,99742.87
2022-11-24T11:58:45.946Z,99750.44
2022-11-24T12:03:47.981Z,99756.87
2022-11-24T12:09:33.536Z,99755.59
2022-11-24T12:14:46.930Z,99764.06
2022-11-24T12:19:55.807Z,99759.06
2022-11-24T12:25:14.383Z,99755.69
2022-11-24T12:30:18.062Z,99764.00
2022-11-24T12:35:28.723Z,99754.75
2022-11-24T12:40:55.268Z,99767.94
2022-11-24T12:46:28.348Z,99761.59
2022-11-24T12:51:38.108Z,99769.25
2022-11-24T12:56:49.290Z,99770.78
2022-11-24T13:02:10.014Z,99768.00
2022-11-24T13:07:40.164Z,99762.63
2022-11-24T13:13:01.135Z,99780.22
2022-11-24T13:18:10.540Z,99767.81
2022-11-24T13:23:24.289Z,99779.53
2022-11-24T13:29:12.910Z,99780.09
2022-11-24T13:34:39.159Z,99790.16
2022-11-24T13:39:50.917Z,99796.63
2022-11-24T13:45:04.787Z,99789.34
2022-11-24T13:50:13.521Z,99791.00
2022-11-24T13:55:15.782Z,99792.63
2022-11-24T14:00:34.110Z,99804.81
2022-11-24T14:05:46.114Z,99802.34
2022-11-24T14:10:48.617Z,99805.56
2022-11-24T14:16:18.657Z,99798.84
2022-11-24T14:21:20.825Z,99812.09
2022-11-24T14:26:45.625Z,99822.91
2022-11-24T14:31:56.283Z,99830.06
2022-11-24T14:37:00.295Z,99829.53
2022-11-24T14:42:05.528Z,99829.59
2022-11-24T14:47:18.630Z,99836.91
2022-11-24T14:52:23.594Z,99838.69
2022-11-24T14:57:25.673Z,99851.25
2022-11-24T15:02:50.118Z,99864.03
2022-11-24T15:08:02.241Z,99871.59
2022-11-24T15:13:15.167Z,99880.59
2022-11-24T15:18:47.562Z,99881.31
2022-11-24T15:24:14.129Z,99896.44
2022-11-24T15:29:16.150Z,99893.03
2022-11-24T15:34:18.175Z,99888.59
2022-11-24T15:39:20.177Z,99883.19
2022-11-24T15:44:22.219Z,99889.38
2022-11-24T15:49:24.236Z,99887.88
2022-11-24T15:54:27.723Z,99899.19
2022-11-24T15:59:31.237Z,99900.94
2022-11-24T16:04:33.683Z,99915.47
2022-11-24T16:09:35.983Z,99904.47
2022-11-24T16:14:38.277Z,99913.81
2022-11-24T16:19:42.096Z,99914.50
2022-11-24T16:24:44.366Z,99928.78
2022-11-24T16:29:46.414Z,99917.16
2022-11-24T16:34:48.478Z,99923.00
2022-11-24T16:39:50.962Z,99929.88
2022-11-24T16:44:53.033Z,99935.25
2022-11-24T16:49:55.108Z,99929.62
2022-11-24T16:59:33.545Z,99956.50
2022-11-24T17:04:35.817Z,99956.50
2022-11-24T17:09:40.728Z,99959.88
2022-11-24T17:14:44.356Z,99978.59
2022-11-24T17:19:50.999Z,99978.44
2022-11-24T17:24:53.117Z,99973.81
2022-11-24T17:29:55.110Z,99982.62
2022-11-24T17:34:57.220Z,99973.88
2022-11-24T17:40:26.352Z,99991.06
2022-11-24T17:45:21.191Z,99985.31
2022-11-24T17:50:25.972Z,99983.38
2022-11-24T17:55:28.546Z,100001.75
2022-11-24T18:00:30.529Z,100002.72
2022-11-24T18:05:36.648Z,100026.66
2022-11-24T18:10:38.917Z,100025.69
2022-11-24T18:15:41.074Z,100032.53
2022-11-24T18:20:43.083Z,100041.88
2022-11-24T18:25:52.594Z,100039.47
2022-11-24T18:31:04.396Z,100046.31
2022-11-24T18:36:08.303Z,100062.84
2022-11-24T18:41:12.347Z,100061.41
2022-11-24T18:46:16.929Z,100058.81
2022-11-24T18:51:19.033Z,100074.56
2022-11-24T18:56:21.191Z,100078.94
2022-11-24T19:01:26.144Z,100082.34
2022-11-24T19:06:33.868Z,100096.00
2022-11-24T19:11:38.625Z,100087.78
2022-11-24T19:16:41.276Z,100081.97
2022-11-24T19:21:43.654Z,100099.94
2022-11-24T19:26:45.753Z,100099.16
2022-11-24T19:31:48.235Z,100118.22
2022-11-24T19:36:50.321Z,100131.41
2022-11-24T19:41:53.267Z,100128.75
2022-11-24T19:46:55.382Z,100135.59
2022-11-24T19:51:57.495Z,100141.16
2022-11-24T19:56:59.534Z,100144.06
2022-11-24T20:02:02.657Z,100148.41
2022-11-24T20:07:05.397Z,100151.72
2022-11-24T20:12:09.773Z,100151.94
2022-11-24T20:17:14.004Z,100177.28
2022-11-24T20:22:16.016Z,100187.22
2022-11-24T20:27:18.069Z,100179.22
2022-11-24T20:32:20.735Z,100186.84
2022-11-24T20:37:23.365Z,100208.31
2022-11-24T20:42:25.543Z,100219.84
2022-11-24T20:47:27.843Z,100216.97
2022-11-24T20:52:29.884Z,100215.31
2022-11-24T20:57:31.948Z,100222.12
2022-11-24T21:02:34.165Z,100227.91
2022-11-24T21:07:36.237Z,100238.84
2022-11-24T21:12:38.378Z,100229.97
2022-11-24T21:17:40.451Z,100237.63
2022-11-24T21:22:42.453Z,100249.19
2022-11-24T21:27:44.452Z,100258.66
2022-11-24T21:32:46.690Z,100257.63
2022-11-24T21:37:48.689Z,100250.19
2022-11-24T21:42:50.710Z,100254.53
2022-11-24T21:47:52.766Z,100248.38
2022-11-24T21:52:58.065Z,100242.59
2022-11-24T21:58:06.241Z,100254.78
2022-11-24T22:03:08.343Z,100243.63
2022-11-24T22:08:10.387Z,100253.97
2022-11-24T22:13:12.516Z,100264.69
2022-11-24T22:18:14.539Z,100254.56
2022-11-24T22:23:16.537Z,100279.72
2022-11-24T22:28:18.693Z,100281.41
2022-11-24T22:33:20.718Z,100276.44
2022-11-24T22:38:22.765Z,100294.37
